Time;durP1;ratioP1;P1;durP2;ratioP2;P2;SDS_P1;SDS_P2;PMS_P1;PMS_P2;Temp;Humidity;BMP_temperature;BMP_pressure;BME280_temperature;BME280_humidity;BME280_pressure;Samples;Min_cycle;Max_cycle;Signal;HPM_P1;HPM_P2
2022/09/29 00:01:09;;;;;;;11.90;9.60;;;7.20;99.90;;;;;;5108837;27;20505;-46
2022/09/29 00:03:36;;;;;;;11.43;9.33;;;7.20;99.90;;;;;;5105610;27;20204;-52
2022/09/29 00:06:03;;;;;;;12.73;9.33;;;7.10;99.90;;;;;;5102945;28;20298;-47
2022/09/29 00:08:31;;;;;;;12.27;9.40;;;7.00;99.90;;;;;;5106294;27;20224;-50
2022/09/29 00:10:59;;;;;;;11.33;8.80;;;7.00;99.90;;;;;;5102723;27;20190;-51
2022/09/29 00:13:25;;;;;;;13.10;10.27;;;6.90;99.90;;;;;;5105815;28;20781;-49
2022/09/29 00:15:58;;;;;;;14.03;9.90;;;6.80;99.90;;;;;;5102980;28;20276;-51
2022/09/29 00:18:25;;;;;;;12.30;9.50;;;6.80;99.90;;;;;;5097429;27;20204;-51
2022/09/29 00:20:59;;;;;;;11.70;9.63;;;6.70;99.90;;;;;;5103161;28;20197;-52
2022/09/29 00:23:26;;;;;;;13.60;10.27;;;6.70;99.90;;;;;;5105299;28;20688;-50
2022/09/29 00:26:02;;;;;;;12.23;9.43;;;6.70;99.90;;;;;;5102726;27;20193;-51
2022/09/29 00:28:29;;;;;;;13.90;10.03;;;6.60;99.90;;;;;;5106579;28;20201;-49
2022/09/29 00:30:58;;;;;;;14.77;9.80;;;6.60;99.90;;;;;;5102151;28;20190;-51
2022/09/29 00:33:24;;;;;;;11.90;9.10;;;6.50;99.90;;;;;;5094345;27;20705;-48
2022/09/29 00:35:59;;;;;;;13.20;9.47;;;6.50;99.90;;;;;;5102760;28;20217;-47
2022/09/29 00:38:27;;;;;;;12.13;9.57;;;6.50;99.90;;;;;;5105968;28;20202;-45
2022/09/29 00:40:53;;;;;;;14.07;10.30;;;6.50;99.90;;;;;;5102495;28;20550;-50
2022/09/29 00:43:24;;;;;;;15.20;10.70;;;6.50;99.90;;;;;;5105308;28;20196;-48
2022/09/29 00:45:54;;;;;;;13.77;10.23;;;6.50;99.90;;;;;;5102880;28;20193;-46
2022/09/29 00:48:27;;;;;;;11.13;8.70;;;6.50;99.90;;;;;;5094432;27;20217;-52
2022/09/29 00:50:55;;;;;;;15.10;10.70;;;6.60;99.90;;;;;;5102015;28;20610;-50
2022/09/29 00:53:24;;;;;;;13.00;10.07;;;6.70;99.90;;;;;;5104643;28;20556;-49
2022/09/29 00:55:57;;;;;;;13.90;8.97;;;6.60;99.90;;;;;;5102441;28;20197;-48
2022/09/29 00:58:30;;;;;;;14.20;9.77;;;6.70;99.90;;;;;;5106002;28;20185;-49
2022/09/29 01:00:56;;;;;;;13.53;10.17;;;6.70;99.90;;;;;;5101729;28;20187;-45
2022/09/29 01:03:27;;;;;;;13.03;9.33;;;6.60;99.90;;;;;;5097429;27;20211;-47
2022/09/29 01:05:57;;;;;;;13.27;9.57;;;6.70;99.90;;;;;;5122017;27;20207;-47
2022/09/29 01:08:30;;;;;;;11.17;8.93;;;6.70;99.90;;;;;;5125562;27;20204;-45
2022/09/29 01:10:57;;;;;;;10.77;8.97;;;6.60;99.90;;;;;;5122206;27;20185;-47
2022/09/29 01:13:25;;;;;;;13.73;9.47;;;6.50;99.90;;;;;;5125224;27;20197;-46
2022/09/29 01:15:52;;;;;;;12.40;9.37;;;6.40;99.90;;;;;;5122499;27;20193;-48
2022/09/29 01:18:19;;;;;;;13.67;9.27;;;6.40;99.90;;;;;;5109111;27;20669;-52
2022/09/29 01:20:54;;;;;;;13.87;9.63;;;6.30;99.90;;;;;;5123573;27;20211;-48
2022/09/29 01:23:45;;;;;;;16.03;8.53;;;6.20;99.90;;;;;;5124228;27;20204;-52
2022/09/29 01:26:50;;;;;;;13.73;9.53;;;6.30;99.90;;;;;;5123843;27;20401;-49
2022/09/29 01:29:53;;;;;;;11.33;9.13;;;6.30;99.90;;;;;;5125494;27;20219;-47
2022/09/29 01:32:28;;;;;;;11.93;9.53;;;6.30;99.90;;;;;;5125756;27;20192;-48
2022/09/29 01:35:05;;;;;;;11.87;8.60;;;6.20;99.90;;;;;;5105814;27;20548;-51
2022/09/29 01:37:44;;;;;;;13.53;8.73;;;6.20;99.90;;;;;;5110904;27;20228;-53
2022/09/29 01:40:14;;;;;;;12.40;8.97;;;6.30;99.90;;;;;;5103132;28;20181;-50
2022/09/29 01:42:50;;;;;;;12.53;9.17;;;6.40;99.90;;;;;;5103838;28;20193;-49
2022/09/29 01:45:23;;;;;;;12.27;8.60;;;6.40;99.90;;;;;;5103173;28;20193;-48
2022/09/29 01:47:54;;;;;;;11.27;9.17;;;6.30;99.90;;;;;;5101896;28;20224;-54
2022/09/29 01:50:26;;;;;;;14.07;9.63;;;6.30;99.90;;;;;;5087196;27;20692;-50
2022/09/29 01:52:58;;;;;;;15.13;9.43;;;6.20;99.90;;;;;;5100280;28;20201;-51
2022/09/29 01:55:28;;;;;;;13.77;8.97;;;6.20;99.90;;;;;;5103943;28;20205;-47
2022/09/29 01:58:00;;;;;;;11.57;8.43;;;6.20;99.90;;;;;;5100541;28;20214;-46
2022/09/29 02:00:30;;;;;;;13.63;8.80;;;6.20;99.90;;;;;;5103310;28;20280;-49
2022/09/29 02:03:06;;;;;;;10.97;8.23;;;6.20;99.90;;;;;;5100316;28;20193;-51
2022/09/29 02:05:38;;;;;;;14.77;8.83;;;6.20;99.90;;;;;;5105766;27;20677;-49
2022/09/29 02:08:11;;;;;;;12.70;8.87;;;6.10;99.90;;;;;;5120951;27;20211;-47
2022/09/29 02:10:41;;;;;;;12.17;8.90;;;6.00;99.90;;;;;;5124587;27;20563;-49
2022/09/29 02:13:10;;;;;;;13.07;9.30;;;6.00;99.90;;;;;;5121818;27;20195;-48
2022/09/29 02:15:43;;;;;;;11.70;9.00;;;6.00;99.90;;;;;;5124577;27;20185;-51
2022/09/29 02:18:16;;;;;;;12.57;9.67;;;6.10;99.90;;;;;;5117371;27;21091;-51
2022/09/29 02:20:42;;;;;;;12.63;8.57;;;6.10;99.90;;;;;;5103054;27;20196;-50
2022/09/29 02:23:10;;;;;;;13.07;8.97;;;6.10;99.90;;;;;;5101673;27;20313;-48
2022/09/29 02:25:39;;;;;;;13.37;8.97;;;6.10;99.90;;;;;;5103714;28;20189;-50
2022/09/29 02:28:08;;;;;;;14.23;9.67;;;6.20;99.90;;;;;;5101368;28;20213;-45
2022/09/29 02:30:35;;;;;;;14.53;10.67;;;6.20;99.90;;;;;;5102785;28;20638;-49
2022/09/29 02:33:02;;;;;;;11.33;9.07;;;6.20;99.90;;;;;;5100154;28;20193;-50
2022/09/29 02:35:43;;;;;;;12.57;8.87;;;6.10;99.90;;;;;;5086670;27;20285;-46
2022/09/29 02:38:18;;;;;;;11.90;8.80;;;5.90;99.90;;;;;;5099799;28;20220;-53
2022/09/29 02:40:53;;;;;;;12.47;8.67;;;5.80;99.90;;;;;;5101642;28;20192;-51
2022/09/29 02:43:38;;;;;;;10.37;8.13;;;5.80;99.90;;;;;;5101594;28;20204;-51
2022/09/29 02:46:18;;;;;;;10.03;8.03;;;5.80;99.90;;;;;;5100574;28;20318;-51
2022/09/29 02:48:59;;;;;;;11.00;8.43;;;5.70;99.90;;;;;;5109102;27;20212;-50
2022/09/29 02:51:31;;;;;;;11.40;8.43;;;5.70;99.90;;;;;;5090917;27;20204;-45
2022/09/29 02:54:14;;;;;;;14.93;10.03;;;5.80;99.90;;;;;;5097881;28;20453;-50
2022/09/29 02:56:46;;;;;;;12.27;8.47;;;5.80;99.90;;;;;;5102486;28;20209;-48
2022/09/29 02:59:18;;;;;;;12.17;8.60;;;5.80;99.90;;;;;;5102155;28;20859;-48
2022/09/29 03:01:51;;;;;;;11.87;8.83;;;5.80;99.90;;;;;;5101699;28;20189;-49
2022/09/29 03:04:19;;;;;;;12.00;8.30;;;5.70;99.90;;;;;;5102283;28;20185;-50
2022/09/29 03:06:47;;;;;;;13.93;8.40;;;5.60;99.90;;;;;;5090229;28;20236;-51
2022/09/29 03:09:14;;;;;;;10.27;7.93;;;5.60;99.90;;;;;;5121300;28;20435;-50
2022/09/29 03:11:41;;;;;;;10.10;8.20;;;5.50;99.90;;;;;;5123245;27;20569;-54
2022/09/29 03:14:09;;;;;;;9.27;7.73;;;5.50;99.90;;;;;;5121024;27;20187;-47
2022/09/29 03:16:36;;;;;;;12.83;8.13;;;5.40;99.90;;;;;;5123897;27;20208;-50
2022/09/29 03:19:04;;;;;;;11.33;7.73;;;5.40;99.90;;;;;;5113940;27;20192;-48
2022/09/29 03:21:30;;;;;;;13.43;9.03;;;5.40;99.90;;;;;;5097438;28;20839;-50
2022/09/29 03:23:59;;;;;;;9.70;7.37;;;5.40;99.90;;;;;;5097517;28;20242;-47
2022/09/29 03:26:26;;;;;;;10.47;7.73;;;5.40;99.90;;;;;;5103405;28;20254;-52
2022/09/29 03:28:53;;;;;;;13.27;8.33;;;5.40;99.90;;;;;;5099847;28;20662;-49
2022/09/29 03:31:20;;;;;;;11.60;7.90;;;5.40;99.90;;;;;;5103432;28;20200;-52
2022/09/29 03:33:47;;;;;;;10.63;8.70;;;5.40;99.90;;;;;;5099784;28;20189;-51
2022/09/29 03:36:15;;;;;;;9.10;7.20;;;5.50;99.90;;;;;;5090762;28;20609;-47
2022/09/29 03:38:42;;;;;;;11.80;8.57;;;5.40;99.90;;;;;;5101340;28;20197;-49
2022/09/29 03:41:11;;;;;;;11.87;8.47;;;5.40;99.90;;;;;;5120344;28;20385;-50
2022/09/29 03:43:37;;;;;;;11.17;7.80;;;5.40;99.90;;;;;;5122414;27;20189;-49
2022/09/29 03:46:05;;;;;;;13.37;8.67;;;5.40;99.90;;;;;;5120793;27;20181;-47
2022/09/29 03:48:33;;;;;;;10.77;7.80;;;5.30;99.90;;;;;;5118578;27;20188;-52
2022/09/29 03:51:02;;;;;;;9.27;8.03;;;5.30;99.90;;;;;;5098132;27;20540;-48
2022/09/29 03:53:28;;;;;;;12.70;7.50;;;5.30;99.90;;;;;;5105555;28;20729;-52
2022/09/29 03:55:55;;;;;;;11.80;8.53;;;5.30;99.90;;;;;;5102927;28;20819;-53
2022/09/29 03:58:24;;;;;;;11.73;7.63;;;5.30;99.90;;;;;;5107086;28;20185;-48
2022/09/29 04:00:51;;;;;;;9.37;7.63;;;5.40;99.90;;;;;;5103915;27;20272;-47
2022/09/29 04:03:18;;;;;;;10.77;7.73;;;5.40;99.90;;;;;;5105786;28;20190;-47
2022/09/29 04:05:46;;;;;;;10.67;8.50;;;5.30;99.90;;;;;;5104232;28;20676;-49
2022/09/29 04:08:13;;;;;;;12.03;8.33;;;5.30;99.90;;;;;;5093028;27;20236;-52
2022/09/29 04:10:41;;;;;;;10.47;7.07;;;5.30;99.90;;;;;;5120793;27;20658;-49
2022/09/29 04:13:08;;;;;;;10.87;7.97;;;5.30;99.90;;;;;;5124584;27;20185;-46
2022/09/29 04:15:37;;;;;;;9.90;8.33;;;5.30;99.90;;;;;;5127337;27;20696;-49
2022/09/29 04:18:04;;;;;;;11.47;8.10;;;5.30;99.90;;;;;;5118164;27;20217;-51
2022/09/29 04:20:32;;;;;;;10.63;7.70;;;5.30;99.90;;;;;;5118425;27;20185;-46
2022/09/29 04:22:59;;;;;;;11.13;7.93;;;5.30;99.90;;;;;;5107789;27;20561;-45
2022/09/29 04:25:27;;;;;;;9.67;7.20;;;5.40;99.90;;;;;;5121343;27;20215;-47
2022/09/29 04:27:54;;;;;;;10.37;7.90;;;5.50;99.90;;;;;;5102850;28;20270;-48
2022/09/29 04:30:22;;;;;;;11.63;7.93;;;5.50;99.90;;;;;;5106374;28;20221;-49
2022/09/29 04:32:50;;;;;;;11.00;8.00;;;5.50;99.90;;;;;;5103627;27;20185;-48
2022/09/29 04:35:17;;;;;;;13.83;8.90;;;5.50;99.90;;;;;;5104653;28;20192;-47
2022/09/29 04:37:44;;;;;;;8.60;7.70;;;5.50;99.90;;;;;;5098012;27;20213;-48
2022/09/29 04:40:11;;;;;;;12.50;8.13;;;5.50;99.90;;;;;;5092760;27;20197;-48
2022/09/29 04:42:38;;;;;;;13.63;8.63;;;5.50;99.90;;;;;;5101459;28;20296;-46
2022/09/29 04:45:05;;;;;;;12.30;8.70;;;5.50;99.90;;;;;;5100495;27;20201;-47
2022/09/29 04:47:33;;;;;;;14.33;8.67;;;5.50;99.90;;;;;;5102110;28;20217;-47
2022/09/29 04:50:01;;;;;;;9.73;7.80;;;5.50;99.90;;;;;;5115031;27;20219;-48
2022/09/29 04:52:28;;;;;;;14.00;8.70;;;5.50;99.90;;;;;;5102059;27;20197;-48
2022/09/29 04:54:55;;;;;;;13.93;8.80;;;5.50;99.90;;;;;;5091536;27;20217;-47
2022/09/29 04:57:21;;;;;;;12.90;8.40;;;5.60;99.90;;;;;;5095264;27;20225;-50
2022/09/29 04:59:50;;;;;;;16.90;8.97;;;5.60;99.90;;;;;;5123797;27;20193;-50
2022/09/29 05:02:18;;;;;;;14.30;10.20;;;5.60;99.90;;;;;;5100380;27;20201;-50
2022/09/29 05:04:46;;;;;;;17.73;10.87;;;5.60;99.90;;;;;;5102998;27;20189;-46
2022/09/29 05:07:15;;;;;;;15.60;11.10;;;5.70;99.90;;;;;;5104500;28;20243;-48
2022/09/29 05:09:41;;;;;;;16.27;10.17;;;5.80;99.90;;;;;;5092289;27;20245;-54
2022/09/29 05:12:08;;;;;;;20.53;12.50;;;5.80;99.90;;;;;;5109263;27;20203;-47
2022/09/29 05:14:34;;;;;;;18.53;12.47;;;5.90;99.90;;;;;;5100524;28;20190;-46
2022/09/29 05:17:01;;;;;;;19.60;12.93;;;6.00;99.90;;;;;;5100793;27;20220;-49
2022/09/29 05:19:30;;;;;;;20.87;12.53;;;6.00;99.90;;;;;;5109307;27;20193;-50
2022/09/29 05:21:58;;;;;;;18.87;12.13;;;6.10;99.90;;;;;;5109899;27;20263;-46
2022/09/29 05:24:27;;;;;;;18.87;11.47;;;6.10;99.90;;;;;;5088131;27;20190;-51
2022/09/29 05:26:55;;;;;;;14.00;9.67;;;6.10;99.90;;;;;;5101337;28;20209;-46
2022/09/29 05:29:22;;;;;;;13.27;9.47;;;6.10;99.90;;;;;;5097428;27;20785;-47
2022/09/29 05:31:49;;;;;;;16.07;10.30;;;6.10;99.90;;;;;;5104747;28;20277;-47
2022/09/29 05:34:16;;;;;;;15.37;9.63;;;6.20;99.90;;;;;;5097429;27;20209;-52
2022/09/29 05:36:43;;;;;;;18.47;11.03;;;6.10;99.90;;;;;;5103487;27;20748;-46
2022/09/29 05:39:10;;;;;;;14.10;10.70;;;6.20;99.90;;;;;;5103555;28;20196;-49
2022/09/29 05:41:38;;;;;;;19.13;11.70;;;6.20;99.90;;;;;;5085788;27;20205;-47
2022/09/29 05:44:06;;;;;;;16.03;11.07;;;6.20;99.90;;;;;;5098880;27;20577;-47
2022/09/29 05:46:33;;;;;;;18.10;12.00;;;6.20;99.90;;;;;;5100587;28;20209;-47
2022/09/29 05:49:00;;;;;;;16.50;12.00;;;6.30;99.90;;;;;;5100667;27;20201;-45
2022/09/29 05:51:26;;;;;;;19.53;12.80;;;6.30;99.90;;;;;;5115315;27;20211;-47
2022/09/29 05:53:54;;;;;;;26.63;14.47;;;6.40;99.90;;;;;;5108252;27;20192;-48
2022/09/29 05:56:23;;;;;;;23.10;14.87;;;6.40;99.90;;;;;;5093949;27;20743;-52
2022/09/29 05:58:51;;;;;;;25.37;14.30;;;6.50;99.90;;;;;;5088780;27;20205;-45
2022/09/29 06:01:20;;;;;;;22.33;13.53;;;6.60;99.90;;;;;;5102529;28;20242;-46
2022/09/29 06:03:47;;;;;;;22.70;14.67;;;6.60;99.90;;;;;;5097869;28;20907;-46
2022/09/29 06:06:16;;;;;;;29.27;17.17;;;6.70;99.90;;;;;;5104230;28;20248;-46
2022/09/29 06:08:44;;;;;;;28.50;16.57;;;6.70;99.90;;;;;;5099143;28;20193;-52
2022/09/29 06:11:13;;;;;;;28.47;16.17;;;6.80;99.90;;;;;;5104210;28;20724;-47
2022/09/29 06:13:41;;;;;;;35.57;16.07;;;6.90;99.90;;;;;;5088695;27;20677;-50
2022/09/29 06:16:10;;;;;;;27.67;16.57;;;6.90;99.90;;;;;;5103997;28;20197;-46
2022/09/29 06:18:37;;;;;;;26.33;15.70;;;6.90;99.90;;;;;;5107557;27;20196;-49
2022/09/29 06:21:07;;;;;;;27.80;15.90;;;7.00;99.90;;;;;;5114921;27;20192;-50
2022/09/29 06:23:35;;;;;;;24.93;15.93;;;7.00;99.90;;;;;;5121377;27;20193;-46
2022/09/29 06:26:06;;;;;;;53.83;21.37;;;7.10;99.90;;;;;;5123003;27;20189;-47
2022/09/29 06:28:33;;;;;;;38.60;18.10;;;7.10;99.90;;;;;;5101855;27;20208;-49
2022/09/29 06:31:02;;;;;;;26.73;16.20;;;7.20;99.90;;;;;;5102134;28;20267;-49
2022/09/29 06:33:31;;;;;;;27.77;16.43;;;7.20;99.90;;;;;;5102091;28;20185;-50
2022/09/29 06:38:44;;;;;;;22.67;14.80;;;7.30;99.90;;;;;;5094219;27;20195;-50
2022/09/29 06:41:11;;;;;;;20.27;15.50;;;7.30;99.90;;;;;;5106327;27;20258;-50
2022/09/29 06:43:37;;;;;;;26.30;15.63;;;7.40;99.90;;;;;;5096352;27;20197;-51
2022/09/29 06:46:05;;;;;;;24.47;15.13;;;7.40;99.90;;;;;;5100434;27;20658;-50
2022/09/29 06:48:33;;;;;;;21.53;15.77;;;7.40;99.90;;;;;;5102125;27;20200;-48
2022/09/29 06:51:00;;;;;;;21.87;16.60;;;7.50;99.90;;;;;;5111636;27;20215;-52
2022/09/29 06:53:27;;;;;;;26.13;15.87;;;7.50;99.90;;;;;;5102014;27;20885;-48
2022/09/29 06:55:55;;;;;;;22.80;15.10;;;7.60;99.90;;;;;;5094245;27;20203;-51
2022/09/29 06:58:21;;;;;;;31.47;17.70;;;7.60;99.90;;;;;;5086953;28;20255;-50
2022/09/29 07:00:52;;;;;;;25.27;17.33;;;7.70;99.90;;;;;;5085237;28;20211;-51
2022/09/29 07:03:18;;;;;;;32.93;17.70;;;7.70;99.90;;;;;;5098785;28;20686;-48
2022/09/29 07:05:47;;;;;;;30.17;17.47;;;7.80;99.90;;;;;;5100984;28;20193;-48
2022/09/29 07:08:13;;;;;;;29.00;17.77;;;7.80;99.90;;;;;;5100971;28;20224;-48
2022/09/29 07:10:41;;;;;;;23.30;17.50;;;7.90;99.90;;;;;;5100071;28;20275;-45
2022/09/29 07:13:08;;;;;;;23.17;17.03;;;7.90;99.90;;;;;;5102127;28;20189;-46
2022/09/29 07:15:36;;;;;;;24.23;16.90;;;8.00;99.90;;;;;;5080384;28;20270;-51
2022/09/29 07:18:04;;;;;;;32.40;18.43;;;8.00;99.90;;;;;;5102937;28;20217;-52
2022/09/29 07:20:32;;;;;;;36.37;19.93;;;8.10;99.90;;;;;;5105400;28;20188;-45
2022/09/29 07:23:00;;;;;;;27.50;16.23;;;8.10;99.90;;;;;;5103221;27;20564;-49
2022/09/29 07:25:26;;;;;;;32.60;18.27;;;8.10;99.90;;;;;;5098131;28;20193;-48
2022/09/29 07:27:53;;;;;;;27.60;16.07;;;8.20;99.90;;;;;;5107488;27;20217;-46
2022/09/29 07:30:20;;;;;;;25.13;17.53;;;8.20;99.90;;;;;;5092324;27;20242;-43
2022/09/29 07:32:47;;;;;;;25.10;16.77;;;8.30;99.90;;;;;;5097617;27;20198;-43
2022/09/29 07:35:14;;;;;;;29.67;17.23;;;8.30;99.90;;;;;;5119573;27;20193;-47
2022/09/29 07:37:40;;;;;;;23.47;16.67;;;8.40;99.90;;;;;;5113544;27;20800;-47
2022/09/29 07:40:09;;;;;;;22.13;16.73;;;8.40;99.90;;;;;;5110172;27;20528;-51
2022/09/29 07:42:36;;;;;;;22.23;16.27;;;8.40;99.90;;;;;;5103270;28;20225;-48
2022/09/29 07:45:03;;;;;;;21.70;16.43;;;8.50;99.90;;;;;;5108271;27;20197;-47
2022/09/29 07:47:30;;;;;;;24.70;16.70;;;8.60;99.90;;;;;;5082633;27;20221;-47
2022/09/29 07:49:57;;;;;;;24.57;17.47;;;8.70;99.90;;;;;;5105685;27;20200;-45
2022/09/29 07:52:24;;;;;;;25.43;17.20;;;8.70;99.90;;;;;;5103454;28;20221;-48
2022/09/29 07:54:51;;;;;;;23.43;15.87;;;8.70;99.90;;;;;;5104549;27;20200;-46
2022/09/29 07:57:19;;;;;;;22.03;16.57;;;8.80;99.90;;;;;;5103827;28;20629;-48
2022/09/29 07:59:45;;;;;;;22.07;15.70;;;8.80;99.90;;;;;;5104914;27;20204;-46
2022/09/29 08:02:13;;;;;;;20.53;15.53;;;8.90;99.90;;;;;;5088406;27;20208;-48
2022/09/29 08:04:40;;;;;;;25.53;16.67;;;9.00;99.90;;;;;;5102488;28;20246;-50
2022/09/29 08:07:07;;;;;;;20.00;16.00;;;9.00;99.90;;;;;;5117381;27;20204;-47
2022/09/29 08:09:34;;;;;;;21.27;14.60;;;9.10;99.90;;;;;;5108361;27;20189;-47
2022/09/29 08:12:01;;;;;;;19.67;14.87;;;9.10;99.90;;;;;;5109078;27;20245;-49
2022/09/29 08:14:29;;;;;;;16.33;13.83;;;9.10;99.90;;;;;;5101307;27;20282;-51
2022/09/29 08:16:56;;;;;;;18.57;13.87;;;9.10;99.90;;;;;;5090638;27;20245;-48
2022/09/29 08:19:24;;;;;;;23.43;15.43;;;9.20;99.90;;;;;;5103627;28;20246;-47
2022/09/29 08:21:50;;;;;;;18.67;14.43;;;9.20;99.90;;;;;;5107490;27;20467;-49
2022/09/29 08:24:17;;;;;;;18.47;14.03;;;9.30;99.90;;;;;;5103401;27;20193;-47
2022/09/29 08:26:45;;;;;;;17.53;13.90;;;9.40;99.90;;;;;;5103214;28;20224;-47
2022/09/29 08:29:13;;;;;;;16.43;13.23;;;9.40;99.90;;;;;;5113111;27;20193;-52
2022/09/29 08:31:43;;;;;;;17.90;12.97;;;9.50;99.90;;;;;;5106175;27;20492;-50
2022/09/29 08:34:09;;;;;;;17.33;14.40;;;9.50;99.90;;;;;;5101960;27;20284;-50
2022/09/29 08:36:36;;;;;;;20.13;13.13;;;9.50;99.90;;;;;;5115735;27;20275;-47
2022/09/29 08:39:03;;;;;;;15.87;12.83;;;9.60;99.90;;;;;;5115892;27;20196;-48
2022/09/29 08:41:43;;;;;;;14.93;12.77;;;9.60;99.90;;;;;;5108515;27;20230;-45
2022/09/29 08:44:16;;;;;;;14.57;12.40;;;9.70;99.90;;;;;;5125336;27;20306;-47
2022/09/29 08:46:48;;;;;;;15.83;12.90;;;9.70;99.90;;;;;;5121032;27;20209;-46
2022/09/29 08:49:19;;;;;;;15.90;12.40;;;9.80;99.90;;;;;;5092219;27;20205;-48
2022/09/29 08:51:50;;;;;;;18.57;12.40;;;9.80;99.90;;;;;;5103678;28;20393;-50
2022/09/29 08:54:24;;;;;;;15.17;11.87;;;9.80;99.90;;;;;;5101093;27;20204;-52
2022/09/29 08:56:51;;;;;;;14.97;11.87;;;9.80;99.90;;;;;;5104658;28;20242;-44
2022/09/29 08:59:18;;;;;;;16.80;13.27;;;9.90;99.90;;;;;;5105935;27;20201;-45
2022/09/29 09:02:00;;;;;;;18.17;13.20;;;9.90;99.90;;;;;;5105855;27;20187;-45
2022/09/29 09:04:57;;;;;;;19.10;13.77;;;10.00;99.90;;;;;;5093363;27;20204;-51
2022/09/29 09:07:30;;;;;;;16.00;13.67;;;10.10;99.90;;;;;;5102680;27;20684;-47
2022/09/29 09:10:13;;;;;;;18.90;14.37;;;10.10;99.90;;;;;;5107602;27;20316;-45
2022/09/29 09:13:04;;;;;;;18.17;13.67;;;10.20;99.90;;;;;;5110983;27;20995;-44
2022/09/29 09:15:45;;;;;;;18.70;12.43;;;10.20;99.90;;;;;;5103972;27;20185;-45
2022/09/29 09:18:42;;;;;;;17.27;14.27;;;10.30;99.90;;;;;;5104116;27;20256;-51
2022/09/29 09:21:14;;;;;;;17.23;13.03;;;10.40;99.90;;;;;;5103427;27;20613;-46
2022/09/29 09:23:53;;;;;;;17.07;13.03;;;10.40;99.90;;;;;;5107472;27;20193;-48
2022/09/29 09:26:25;;;;;;;15.40;12.00;;;10.40;99.90;;;;;;5109058;27;20749;-45
2022/09/29 09:28:57;;;;;;;12.87;10.90;;;10.50;99.90;;;;;;5104483;27;20652;-47
2022/09/29 09:31:30;;;;;;;13.10;11.17;;;10.60;99.90;;;;;;5106399;27;20712;-50
2022/09/29 09:34:02;;;;;;;16.77;11.40;;;10.60;99.90;;;;;;5099956;27;20621;-48
2022/09/29 09:36:34;;;;;;;15.23;11.40;;;10.60;99.90;;;;;;5103073;27;20225;-47
2022/09/29 09:39:04;;;;;;;12.50;11.20;;;10.70;99.90;;;;;;5111776;27;20258;-45
2022/09/29 09:41:34;;;;;;;12.10;10.87;;;10.80;99.90;;;;;;5105171;27;20180;-45
2022/09/29 09:44:07;;;;;;;11.63;10.33;;;10.90;99.90;;;;;;5103978;27;20653;-44
2022/09/29 09:46:40;;;;;;;14.67;10.53;;;11.00;99.90;;;;;;5102571;27;20243;-45
2022/09/29 09:49:16;;;;;;;10.73;9.63;;;11.10;99.90;;;;;;5111651;27;20272;-43
2022/09/29 09:51:49;;;;;;;13.83;10.07;;;11.10;99.90;;;;;;5113652;27;20449;-46
2022/09/29 09:54:28;;;;;;;14.60;10.67;;;11.20;99.90;;;;;;5106743;27;20201;-46
2022/09/29 09:57:38;;;;;;;11.50;10.23;;;11.30;99.90;;;;;;5100936;28;20228;-44
2022/09/29 10:00:11;;;;;;;8.50;7.60;;;11.40;99.90;;;;;;5074863;27;20229;-46
2022/09/29 10:02:43;;;;;;;8.70;7.80;;;11.40;99.90;;;;;;5101496;28;20193;-50
2022/09/29 10:05:15;;;;;;;10.07;7.67;;;11.50;99.90;;;;;;5086780;27;20525;-50
2022/09/29 10:07:42;;;;;;;14.17;10.63;;;11.50;99.90;;;;;;5093879;28;20244;-46
2022/09/29 10:10:16;;;;;;;11.53;8.97;;;11.50;99.90;;;;;;5096063;28;20474;-48
2022/09/29 10:12:44;;;;;;;8.43;7.63;;;11.60;99.90;;;;;;5102422;28;20637;-48
2022/09/29 10:15:22;;;;;;;9.37;8.37;;;11.70;99.90;;;;;;5102269;27;20194;-48
2022/09/29 10:17:56;;;;;;;8.53;7.37;;;11.70;99.90;;;;;;5098734;27;20221;-49
2022/09/29 10:20:34;;;;;;;8.60;7.70;;;11.80;99.90;;;;;;5091694;27;20207;-45
2022/09/29 10:23:19;;;;;;;7.90;7.20;;;11.70;99.90;;;;;;5093961;28;20197;-46
2022/09/29 10:25:53;;;;;;;8.07;7.17;;;11.80;99.90;;;;;;5098432;28;20688;-47
2022/09/29 10:28:24;;;;;;;8.63;6.90;;;11.80;99.90;;;;;;5106644;27;20571;-46
2022/09/29 10:30:53;;;;;;;7.77;7.07;;;11.80;99.90;;;;;;5098843;28;20207;-45
2022/09/29 10:33:23;;;;;;;8.33;7.40;;;11.70;99.90;;;;;;5097139;27;20209;-46
2022/09/29 10:36:05;;;;;;;7.97;7.17;;;11.70;99.90;;;;;;5092002;28;20607;-49
2022/09/29 10:38:32;;;;;;;8.20;7.47;;;11.70;99.90;;;;;;5091775;28;20550;-46
2022/09/29 10:41:03;;;;;;;8.47;7.67;;;11.60;99.90;;;;;;5094075;27;20201;-46
2022/09/29 10:43:35;;;;;;;8.43;7.63;;;11.60;99.90;;;;;;5102095;28;20193;-48
2022/09/29 10:46:04;;;;;;;8.33;7.53;;;11.60;99.90;;;;;;5094675;28;20204;-48
2022/09/29 10:48:32;;;;;;;8.47;7.67;;;11.60;99.90;;;;;;5108888;27;20199;-47
2022/09/29 10:51:02;;;;;;;9.23;8.00;;;11.60;99.90;;;;;;5103158;27;20197;-47
2022/09/29 10:53:34;;;;;;;8.70;7.77;;;11.70;99.90;;;;;;5085984;27;20216;-50
2022/09/29 10:56:07;;;;;;;8.27;7.47;;;11.70;99.90;;;;;;5095833;28;20189;-50
2022/09/29 10:58:37;;;;;;;8.13;7.17;;;11.70;99.90;;;;;;5103021;28;20196;-45
2022/09/29 11:01:08;;;;;;;8.30;7.47;;;11.80;99.90;;;;;;5111506;27;20197;-46
2022/09/29 11:03:38;;;;;;;9.90;8.73;;;11.80;99.90;;;;;;5087741;28;20201;-48
2022/09/29 11:06:10;;;;;;;10.73;8.47;;;11.80;99.90;;;;;;5100935;28;20204;-48
2022/09/29 11:08:56;;;;;;;9.23;7.27;;;11.80;99.90;;;;;;5090080;28;21037;-45
2022/09/29 11:11:26;;;;;;;9.50;7.67;;;11.90;99.90;;;;;;5091169;28;20225;-47
2022/09/29 11:13:54;;;;;;;8.93;8.20;;;11.80;99.90;;;;;;5098646;28;20272;-46
2022/09/29 11:16:30;;;;;;;8.73;7.93;;;11.80;99.90;;;;;;5100471;28;20756;-46
2022/09/29 11:19:02;;;;;;;10.10;7.83;;;11.80;99.90;;;;;;5103977;28;20227;-45
2022/09/29 11:22:15;;;;;;;8.90;8.00;;;11.80;99.90;;;;;;5099341;28;20209;-49
2022/09/29 11:25:08;;;;;;;9.57;8.30;;;11.80;99.90;;;;;;5090510;28;20205;-47
2022/09/29 11:27:47;;;;;;;8.93;8.00;;;11.80;99.90;;;;;;5102629;28;20296;-45
2022/09/29 11:30:17;;;;;;;9.93;7.30;;;11.80;99.90;;;;;;5103330;28;20223;-48
2022/09/29 11:33:15;;;;;;;8.33;7.10;;;11.70;99.90;;;;;;5110052;27;20546;-48
2022/09/29 11:35:51;;;;;;;9.13;7.47;;;11.70;99.90;;;;;;5085418;28;20204;-45
2022/09/29 11:38:40;;;;;;;8.03;7.33;;;11.70;99.90;;;;;;5104195;28;20196;-44
2022/09/29 11:41:24;;;;;;;8.57;6.27;;;11.70;99.90;;;;;;5094141;27;20395;-44
2022/09/29 11:43:54;;;;;;;8.40;7.60;;;11.70;99.90;;;;;;5098231;28;20201;-49
2022/09/29 11:46:31;;;;;;;8.50;7.47;;;11.70;99.90;;;;;;5107255;28;20235;-48
2022/09/29 11:49:12;;;;;;;7.10;6.50;;;11.70;99.90;;;;;;5101972;28;20189;-49
2022/09/29 11:52:08;;;;;;;7.80;7.03;;;11.80;99.90;;;;;;5110510;28;20707;-47
2022/09/29 11:55:00;;;;;;;8.07;7.27;;;11.80;99.90;;;;;;5098649;28;20633;-49
2022/09/29 11:57:39;;;;;;;7.23;6.53;;;11.80;99.90;;;;;;5109063;27;20678;-45
2022/09/29 12:00:11;;;;;;;6.87;6.20;;;11.70;99.90;;;;;;5110234;28;20895;-49
2022/09/29 12:03:15;;;;;;;8.77;6.87;;;11.70;99.90;;;;;;5107801;28;20540;-48
2022/09/29 12:05:54;;;;;;;7.73;6.93;;;11.80;99.90;;;;;;5107289;28;20192;-49
2022/09/29 12:08:42;;;;;;;7.20;6.37;;;11.80;99.90;;;;;;5097675;28;20205;-45
2022/09/29 12:11:18;;;;;;;7.10;6.40;;;11.80;99.90;;;;;;5094886;27;20212;-47
2022/09/29 12:13:51;;;;;;;7.83;7.03;;;11.80;99.90;;;;;;5106613;27;20212;-52
2022/09/29 12:16:20;;;;;;;8.00;7.20;;;11.90;99.90;;;;;;5123950;27;20212;-47
2022/09/29 12:18:50;;;;;;;7.53;6.83;;;11.90;99.90;;;;;;5103867;27;20193;-50
2022/09/29 12:21:26;;;;;;;7.17;6.40;;;12.00;99.90;;;;;;5118445;27;20208;-49
2022/09/29 12:23:53;;;;;;;8.33;6.33;;;12.00;99.90;;;;;;5092744;27;20204;-47
2022/09/29 12:26:23;;;;;;;7.50;6.23;;;12.10;99.90;;;;;;5111836;27;20248;-48
2022/09/29 12:28:54;;;;;;;6.40;5.43;;;12.20;99.90;;;;;;5095196;27;20209;-48
2022/09/29 12:31:25;;;;;;;8.10;6.50;;;12.20;99.90;;;;;;5115605;27;20681;-48
2022/09/29 12:33:55;;;;;;;7.10;5.80;;;12.20;99.90;;;;;;5100414;27;20283;-47
2022/09/29 12:36:49;;;;;;;6.00;5.40;;;12.20;99.90;;;;;;5116783;27;20223;-49
2022/09/29 12:39:32;;;;;;;5.40;4.90;;;12.20;99.90;;;;;;5104753;27;20206;-44
2022/09/29 12:42:13;;;;;;;5.60;5.00;;;12.20;99.90;;;;;;5091268;27;21759;-46
2022/09/29 12:44:44;;;;;;;5.60;5.10;;;12.10;99.90;;;;;;5107729;27;20220;-47
2022/09/29 12:47:19;;;;;;;5.73;4.90;;;12.20;99.90;;;;;;5101686;27;20214;-47
2022/09/29 12:50:00;;;;;;;6.43;4.43;;;12.20;99.90;;;;;;5099064;27;20192;-50
2022/09/29 12:52:33;;;;;;;4.07;3.70;;;12.20;99.90;;;;;;5099731;27;20505;-44
2022/09/29 12:55:04;;;;;;;4.70;4.30;;;12.10;99.90;;;;;;5101165;27;20205;-47
2022/09/29 12:57:38;;;;;;;4.50;4.17;;;12.10;99.90;;;;;;5097145;27;20544;-46
2022/09/29 13:00:10;;;;;;;4.67;4.23;;;12.10;99.90;;;;;;5100085;27;20195;-49
2022/09/29 13:03:09;;;;;;;4.77;4.37;;;12.10;99.90;;;;;;5102575;27;20193;-47
2022/09/29 13:05:53;;;;;;;4.33;4.03;;;12.10;99.90;;;;;;5115810;27;20239;-50
2022/09/29 13:08:39;;;;;;;4.10;3.80;;;12.10;99.90;;;;;;5102162;27;20653;-50